sensor_id;sensor_type;location;lat;lon;timestamp;P1;durP1;ratioP1;P2;durP2;ratioP2
74080;SDS011;62438;52.228;6.864;2022-12-24T00:00:23;19.65;;;3.00;;
74080;SDS011;62438;52.228;6.864;2022-12-24T00:02:24;20.40;;;3.45;;
74080;SDS011;62438;52.228;6.864;2022-12-24T00:04:24;17.35;;;3.33;;
74080;SDS011;62438;52.228;6.864;2022-12-24T00:06:24;14.27;;;3.72;;
74080;SDS011;62438;52.228;6.864;2022-12-24T00:08:25;19.67;;;3.33;;
74080;SDS011;62438;52.228;6.864;2022-12-24T00:10:25;16.10;;;2.65;;
74080;SDS011;62438;52.228;6.864;2022-12-24T00:12:26;19.25;;;2.70;;
74080;SDS011;62438;52.228;6.864;2022-12-24T00:14:26;17.02;;;2.90;;
74080;SDS011;62438;52.228;6.864;2022-12-24T00:16:26;18.17;;;3.45;;
74080;SDS011;62438;52.228;6.864;2022-12-24T00:18:27;16.80;;;3.08;;
74080;SDS011;62438;52.228;6.864;2022-12-24T00:20:27;18.67;;;3.03;;
74080;SDS011;62438;52.228;6.864;2022-12-24T00:22:28;16.05;;;3.20;;
74080;SDS011;62438;52.228;6.864;2022-12-24T00:24:28;18.25;;;2.60;;
74080;SDS011;62438;52.228;6.864;2022-12-24T00:26:28;17.50;;;3.03;;
74080;SDS011;62438;52.228;6.864;2022-12-24T00:28:29;26.50;;;2.88;;
74080;SDS011;62438;52.228;6.864;2022-12-24T00:30:29;22.67;;;2.90;;
74080;SDS011;62438;52.228;6.864;2022-12-24T00:32:30;21.88;;;2.75;;
74080;SDS011;62438;52.228;6.864;2022-12-24T00:34:30;17.20;;;2.60;;
74080;SDS011;62438;52.228;6.864;2022-12-24T00:36:31;21.75;;;3.10;;
74080;SDS011;62438;52.228;6.864;2022-12-24T00:38:31;24.27;;;3.53;;
74080;SDS011;62438;52.228;6.864;2022-12-24T00:40:31;19.35;;;2.90;;
74080;SDS011;62438;52.228;6.864;2022-12-24T00:42:32;23.17;;;3.47;;
74080;SDS011;62438;52.228;6.864;2022-12-24T00:44:32;22.40;;;2.85;;
74080;SDS011;62438;52.228;6.864;2022-12-24T00:46:33;24.67;;;3.58;;
74080;SDS011;62438;52.228;6.864;2022-12-24T00:48:34;20.15;;;3.15;;
74080;SDS011;62438;52.228;6.864;2022-12-24T00:50:34;17.25;;;2.60;;
74080;SDS011;62438;52.228;6.864;2022-12-24T00:52:35;18.17;;;2.95;;
74080;SDS011;62438;52.228;6.864;2022-12-24T00:54:35;14.30;;;2.42;;
74080;SDS011;62438;52.228;6.864;2022-12-24T00:56:35;20.02;;;2.78;;
74080;SDS011;62438;52.228;6.864;2022-12-24T00:58:36;19.85;;;2.88;;
74080;SDS011;62438;52.228;6.864;2022-12-24T01:00:36;16.50;;;2.72;;
74080;SDS011;62438;52.228;6.864;2022-12-24T01:02:37;21.40;;;3.00;;
74080;SDS011;62438;52.228;6.864;2022-12-24T01:04:37;20.27;;;3.47;;
74080;SDS011;62438;52.228;6.864;2022-12-24T01:06:56;16.08;;;2.58;;
74080;SDS011;62438;52.228;6.864;2022-12-24T01:08:57;24.77;;;3.30;;
74080;SDS011;62438;52.228;6.864;2022-12-24T01:10:57;26.55;;;3.03;;
74080;SDS011;62438;52.228;6.864;2022-12-24T01:13:00;21.42;;;3.00;;
74080;SDS011;62438;52.228;6.864;2022-12-24T01:15:01;22.52;;;3.40;;
74080;SDS011;62438;52.228;6.864;2022-12-24T01:17:03;23.30;;;3.10;;
74080;SDS011;62438;52.228;6.864;2022-12-24T01:19:03;21.10;;;2.75;;
74080;SDS011;62438;52.228;6.864;2022-12-24T01:21:04;27.73;;;3.20;;
74080;SDS011;62438;52.228;6.864;2022-12-24T01:23:04;24.25;;;2.97;;
74080;SDS011;62438;52.228;6.864;2022-12-24T01:25:05;22.15;;;3.65;;
74080;SDS011;62438;52.228;6.864;2022-12-24T01:27:06;21.27;;;3.17;;
74080;SDS011;62438;52.228;6.864;2022-12-24T01:29:06;21.45;;;3.20;;
74080;SDS011;62438;52.228;6.864;2022-12-24T01:31:11;23.10;;;4.03;;
74080;SDS011;62438;52.228;6.864;2022-12-24T01:33:18;19.40;;;2.85;;
74080;SDS011;62438;52.228;6.864;2022-12-24T01:35:19;28.95;;;2.85;;
74080;SDS011;62438;52.228;6.864;2022-12-24T01:37:19;25.63;;;2.80;;
74080;SDS011;62438;52.228;6.864;2022-12-24T01:39:20;22.92;;;2.38;;
74080;SDS011;62438;52.228;6.864;2022-12-24T01:41:21;23.08;;;3.20;;
74080;SDS011;62438;52.228;6.864;2022-12-24T01:43:44;19.70;;;2.65;;
74080;SDS011;62438;52.228;6.864;2022-12-24T01:45:52;19.50;;;2.90;;
74080;SDS011;62438;52.228;6.864;2022-12-24T01:47:57;19.52;;;2.28;;
74080;SDS011;62438;52.228;6.864;2022-12-24T01:50:02;24.00;;;3.38;;
74080;SDS011;62438;52.228;6.864;2022-12-24T01:52:20;20.48;;;2.75;;
74080;SDS011;62438;52.228;6.864;2022-12-24T01:54:28;21.95;;;3.78;;
74080;SDS011;62438;52.228;6.864;2022-12-24T01:56:31;26.67;;;2.85;;
74080;SDS011;62438;52.228;6.864;2022-12-24T01:58:34;21.33;;;2.88;;
74080;SDS011;62438;52.228;6.864;2022-12-24T02:00:35;23.58;;;3.08;;
74080;SDS011;62438;52.228;6.864;2022-12-24T02:02:36;22.98;;;3.78;;
74080;SDS011;62438;52.228;6.864;2022-12-24T02:04:48;26.73;;;3.30;;
74080;SDS011;62438;52.228;6.864;2022-12-24T02:06:55;22.83;;;3.00;;
74080;SDS011;62438;52.228;6.864;2022-12-24T02:08:55;26.80;;;3.60;;
74080;SDS011;62438;52.228;6.864;2022-12-24T02:10:56;26.52;;;3.72;;
74080;SDS011;62438;52.228;6.864;2022-12-24T02:12:57;31.08;;;3.97;;
74080;SDS011;62438;52.228;6.864;2022-12-24T02:14:58;20.67;;;2.70;;
74080;SDS011;62438;52.228;6.864;2022-12-24T02:21:39;24.83;;;3.08;;
74080;SDS011;62438;52.228;6.864;2022-12-24T02:35:15;21.20;;;2.50;;
74080;SDS011;62438;52.228;6.864;2022-12-24T02:37:33;21.58;;;2.78;;
74080;SDS011;62438;52.228;6.864;2022-12-24T02:39:50;18.60;;;3.47;;
74080;SDS011;62438;52.228;6.864;2022-12-24T02:41:56;26.92;;;3.67;;
74080;SDS011;62438;52.228;6.864;2022-12-24T02:44:05;22.73;;;3.28;;
74080;SDS011;62438;52.228;6.864;2022-12-24T02:46:07;20.90;;;3.08;;
74080;SDS011;62438;52.228;6.864;2022-12-24T02:48:14;23.50;;;3.40;;
74080;SDS011;62438;52.228;6.864;2022-12-24T02:50:17;34.30;;;3.40;;
74080;SDS011;62438;52.228;6.864;2022-12-24T02:54:33;26.90;;;4.18;;
74080;SDS011;62438;52.228;6.864;2022-12-24T03:06:01;33.30;;;2.88;;
74080;SDS011;62438;52.228;6.864;2022-12-24T03:08:25;22.52;;;2.55;;
74080;SDS011;62438;52.228;6.864;2022-12-24T03:12:39;24.63;;;3.20;;
74080;SDS011;62438;52.228;6.864;2022-12-24T03:14:43;30.55;;;4.22;;
74080;SDS011;62438;52.228;6.864;2022-12-24T03:16:44;26.63;;;3.55;;
74080;SDS011;62438;52.228;6.864;2022-12-24T03:18:46;25.42;;;3.03;;
74080;SDS011;62438;52.228;6.864;2022-12-24T03:23:09;30.05;;;3.63;;
74080;SDS011;62438;52.228;6.864;2022-12-24T03:25:10;26.48;;;3.13;;
74080;SDS011;62438;52.228;6.864;2022-12-24T03:27:10;28.52;;;4.35;;
74080;SDS011;62438;52.228;6.864;2022-12-24T03:29:13;22.42;;;2.55;;
74080;SDS011;62438;52.228;6.864;2022-12-24T03:31:13;33.90;;;3.28;;
74080;SDS011;62438;52.228;6.864;2022-12-24T03:33:15;20.52;;;2.95;;
74080;SDS011;62438;52.228;6.864;2022-12-24T03:35:16;27.00;;;3.30;;
74080;SDS011;62438;52.228;6.864;2022-12-24T03:37:16;23.98;;;2.70;;
74080;SDS011;62438;52.228;6.864;2022-12-24T03:39:16;19.55;;;3.45;;
74080;SDS011;62438;52.228;6.864;2022-12-24T03:41:17;27.98;;;2.90;;
74080;SDS011;62438;52.228;6.864;2022-12-24T03:43:17;25.00;;;3.10;;
74080;SDS011;62438;52.228;6.864;2022-12-24T03:45:18;26.42;;;3.47;;
74080;SDS011;62438;52.228;6.864;2022-12-24T03:47:18;20.55;;;3.03;;
74080;SDS011;62438;52.228;6.864;2022-12-24T03:49:18;20.35;;;3.17;;
74080;SDS011;62438;52.228;6.864;2022-12-24T03:51:20;29.10;;;3.70;;
74080;SDS011;62438;52.228;6.864;2022-12-24T03:53:22;30.17;;;3.13;;
74080;SDS011;62438;52.228;6.864;2022-12-24T03:55:22;25.85;;;2.85;;
74080;SDS011;62438;52.228;6.864;2022-12-24T03:57:23;29.52;;;3.47;;
74080;SDS011;62438;52.228;6.864;2022-12-24T03:59:23;26.25;;;2.95;;
74080;SDS011;62438;52.228;6.864;2022-12-24T04:01:24;22.63;;;2.97;;
74080;SDS011;62438;52.228;6.864;2022-12-24T04:03:24;19.10;;;2.58;;
74080;SDS011;62438;52.228;6.864;2022-12-24T04:05:25;20.02;;;2.90;;
74080;SDS011;62438;52.228;6.864;2022-12-24T04:07:25;25.20;;;3.15;;
74080;SDS011;62438;52.228;6.864;2022-12-24T04:09:26;25.77;;;3.45;;
74080;SDS011;62438;52.228;6.864;2022-12-24T04:11:26;20.33;;;2.85;;
74080;SDS011;62438;52.228;6.864;2022-12-24T04:13:26;21.90;;;2.17;;
74080;SDS011;62438;52.228;6.864;2022-12-24T04:15:27;18.88;;;2.85;;
74080;SDS011;62438;52.228;6.864;2022-12-24T04:17:27;23.23;;;3.25;;
74080;SDS011;62438;52.228;6.864;2022-12-24T04:19:28;20.02;;;3.05;;
74080;SDS011;62438;52.228;6.864;2022-12-24T04:21:28;31.20;;;3.35;;
74080;SDS011;62438;52.228;6.864;2022-12-24T04:23:29;20.65;;;2.65;;
74080;SDS011;62438;52.228;6.864;2022-12-24T04:25:31;23.88;;;3.10;;
74080;SDS011;62438;52.228;6.864;2022-12-24T04:27:31;23.20;;;3.30;;
74080;SDS011;62438;52.228;6.864;2022-12-24T04:29:31;20.45;;;2.55;;
74080;SDS011;62438;52.228;6.864;2022-12-24T04:31:32;26.85;;;3.22;;
74080;SDS011;62438;52.228;6.864;2022-12-24T04:33:32;26.63;;;2.65;;
74080;SDS011;62438;52.228;6.864;2022-12-24T04:35:37;24.48;;;2.78;;
74080;SDS011;62438;52.228;6.864;2022-12-24T04:37:39;28.58;;;2.90;;
74080;SDS011;62438;52.228;6.864;2022-12-24T04:39:39;26.45;;;3.17;;
74080;SDS011;62438;52.228;6.864;2022-12-24T04:41:40;35.00;;;3.40;;
74080;SDS011;62438;52.228;6.864;2022-12-24T04:43:40;19.50;;;2.65;;
74080;SDS011;62438;52.228;6.864;2022-12-24T04:45:41;22.08;;;3.10;;
74080;SDS011;62438;52.228;6.864;2022-12-24T04:47:41;22.25;;;3.05;;
74080;SDS011;62438;52.228;6.864;2022-12-24T04:49:42;26.52;;;3.60;;
74080;SDS011;62438;52.228;6.864;2022-12-24T04:51:42;25.30;;;3.78;;
74080;SDS011;62438;52.228;6.864;2022-12-24T04:53:43;21.95;;;2.53;;
74080;SDS011;62438;52.228;6.864;2022-12-24T04:55:44;30.30;;;2.80;;
74080;SDS011;62438;52.228;6.864;2022-12-24T04:57:45;18.35;;;2.78;;
74080;SDS011;62438;52.228;6.864;2022-12-24T04:59:45;18.50;;;2.75;;
74080;SDS011;62438;52.228;6.864;2022-12-24T05:01:45;29.63;;;3.47;;
74080;SDS011;62438;52.228;6.864;2022-12-24T05:03:46;21.58;;;2.53;;
74080;SDS011;62438;52.228;6.864;2022-12-24T05:05:47;21.42;;;2.78;;
74080;SDS011;62438;52.228;6.864;2022-12-24T05:07:47;26.38;;;2.90;;
74080;SDS011;62438;52.228;6.864;2022-12-24T05:09:47;21.63;;;3.10;;
74080;SDS011;62438;52.228;6.864;2022-12-24T05:11:48;20.60;;;3.42;;
74080;SDS011;62438;52.228;6.864;2022-12-24T05:13:48;24.13;;;3.15;;
74080;SDS011;62438;52.228;6.864;2022-12-24T05:15:49;28.10;;;3.55;;
74080;SDS011;62438;52.228;6.864;2022-12-24T05:17:49;22.38;;;3.72;;
74080;SDS011;62438;52.228;6.864;2022-12-24T05:19:50;27.38;;;3.05;;
74080;SDS011;62438;52.228;6.864;2022-12-24T05:21:53;27.35;;;4.22;;
74080;SDS011;62438;52.228;6.864;2022-12-24T05:24:14;27.23;;;3.80;;
74080;SDS011;62438;52.228;6.864;2022-12-24T05:26:38;39.78;;;3.92;;
74080;SDS011;62438;52.228;6.864;2022-12-24T05:28:41;24.73;;;3.05;;
74080;SDS011;62438;52.228;6.864;2022-12-24T05:30:41;32.33;;;3.67;;
74080;SDS011;62438;52.228;6.864;2022-12-24T05:32:41;26.90;;;4.00;;
74080;SDS011;62438;52.228;6.864;2022-12-24T05:34:42;21.80;;;3.55;;
74080;SDS011;62438;52.228;6.864;2022-12-24T05:36:42;27.90;;;3.65;;
74080;SDS011;62438;52.228;6.864;2022-12-24T05:38:43;34.50;;;3.72;;
74080;SDS011;62438;52.228;6.864;2022-12-24T05:40:45;27.00;;;3.83;;
74080;SDS011;62438;52.228;6.864;2022-12-24T05:42:45;30.35;;;4.13;;
74080;SDS011;62438;52.228;6.864;2022-12-24T05:44:46;23.25;;;4.53;;
74080;SDS011;62438;52.228;6.864;2022-12-24T05:46:46;30.88;;;4.32;;
74080;SDS011;62438;52.228;6.864;2022-12-24T05:48:47;31.00;;;4.88;;
74080;SDS011;62438;52.228;6.864;2022-12-24T05:50:48;30.90;;;5.38;;
74080;SDS011;62438;52.228;6.864;2022-12-24T05:52:48;23.60;;;4.45;;
74080;SDS011;62438;52.228;6.864;2022-12-24T05:54:49;26.23;;;4.60;;
74080;SDS011;62438;52.228;6.864;2022-12-24T05:56:49;25.42;;;4.75;;
74080;SDS011;62438;52.228;6.864;2022-12-24T05:58:50;36.17;;;4.60;;
74080;SDS011;62438;52.228;6.864;2022-12-24T06:00:52;36.67;;;5.65;;
74080;SDS011;62438;52.228;6.864;2022-12-24T06:02:53;25.92;;;4.78;;
74080;SDS011;62438;52.228;6.864;2022-12-24T06:04:53;27.20;;;4.47;;
74080;SDS011;62438;52.228;6.864;2022-12-24T06:06:54;24.23;;;5.07;;
74080;SDS011;62438;52.228;6.864;2022-12-24T06:08:55;27.42;;;4.78;;
74080;SDS011;62438;52.228;6.864;2022-12-24T06:10:56;32.53;;;5.55;;
74080;SDS011;62438;52.228;6.864;2022-12-24T06:12:58;25.35;;;4.22;;
74080;SDS011;62438;52.228;6.864;2022-12-24T06:14:59;25.48;;;4.68;;
74080;SDS011;62438;52.228;6.864;2022-12-24T06:16:59;28.13;;;4.65;;
74080;SDS011;62438;52.228;6.864;2022-12-24T06:19:00;33.60;;;5.90;;
74080;SDS011;62438;52.228;6.864;2022-12-24T06:21:00;31.95;;;4.88;;
74080;SDS011;62438;52.228;6.864;2022-12-24T06:23:01;30.55;;;4.72;;
74080;SDS011;62438;52.228;6.864;2022-12-24T06:25:01;28.20;;;5.50;;
74080;SDS011;62438;52.228;6.864;2022-12-24T06:27:01;29.55;;;4.47;;
74080;SDS011;62438;52.228;6.864;2022-12-24T06:29:02;27.08;;;4.43;;
74080;SDS011;62438;52.228;6.864;2022-12-24T06:31:03;24.60;;;4.45;;
74080;SDS011;62438;52.228;6.864;2022-12-24T06:33:05;29.90;;;5.30;;
74080;SDS011;62438;52.228;6.864;2022-12-24T06:35:05;25.45;;;4.50;;
74080;SDS011;62438;52.228;6.864;2022-12-24T06:37:06;26.70;;;5.55;;
74080;SDS011;62438;52.228;6.864;2022-12-24T06:39:06;24.70;;;4.25;;
74080;SDS011;62438;52.228;6.864;2022-12-24T06:41:07;29.17;;;5.43;;
74080;SDS011;62438;52.228;6.864;2022-12-24T06:43:07;30.52;;;4.47;;
74080;SDS011;62438;52.228;6.864;2022-12-24T06:45:08;20.55;;;4.50;;
74080;SDS011;62438;52.228;6.864;2022-12-24T06:47:09;30.15;;;4.85;;
74080;SDS011;62438;52.228;6.864;2022-12-24T06:49:09;27.58;;;4.80;;
74080;SDS011;62438;52.228;6.864;2022-12-24T06:51:10;28.60;;;4.30;;
74080;SDS011;62438;52.228;6.864;2022-12-24T06:53:12;20.10;;;4.50;;
74080;SDS011;62438;52.228;6.864;2022-12-24T06:55:12;21.17;;;3.88;;
74080;SDS011;62438;52.228;6.864;2022-12-24T06:57:12;21.27;;;4.53;;
74080;SDS011;62438;52.228;6.864;2022-12-24T06:59:13;27.98;;;4.55;;
74080;SDS011;62438;52.228;6.864;2022-12-24T07:01:15;25.35;;;3.65;;
74080;SDS011;62438;52.228;6.864;2022-12-24T07:03:16;22.38;;;4.22;;
74080;SDS011;62438;52.228;6.864;2022-12-24T07:05:17;30.83;;;4.30;;
74080;SDS011;62438;52.228;6.864;2022-12-24T07:07:17;28.92;;;4.43;;
74080;SDS011;62438;52.228;6.864;2022-12-24T07:09:18;24.35;;;4.47;;
74080;SDS011;62438;52.228;6.864;2022-12-24T07:11:19;27.42;;;4.47;;
74080;SDS011;62438;52.228;6.864;2022-12-24T07:13:20;29.20;;;5.25;;
74080;SDS011;62438;52.228;6.864;2022-12-24T07:15:20;26.77;;;3.70;;
74080;SDS011;62438;52.228;6.864;2022-12-24T07:17:20;26.02;;;4.30;;
74080;SDS011;62438;52.228;6.864;2022-12-24T07:19:21;31.80;;;4.35;;
74080;SDS011;62438;52.228;6.864;2022-12-24T07:21:21;21.30;;;4.22;;
74080;SDS011;62438;52.228;6.864;2022-12-24T07:23:22;26.15;;;4.22;;
74080;SDS011;62438;52.228;6.864;2022-12-24T07:25:22;30.50;;;4.60;;
74080;SDS011;62438;52.228;6.864;2022-12-24T07:27:23;27.95;;;4.35;;
74080;SDS011;62438;52.228;6.864;2022-12-24T07:29:23;26.83;;;4.38;;
74080;SDS011;62438;52.228;6.864;2022-12-24T07:31:23;27.73;;;4.07;;
74080;SDS011;62438;52.228;6.864;2022-12-24T07:33:24;22.60;;;4.22;;
74080;SDS011;62438;52.228;6.864;2022-12-24T07:35:25;32.20;;;4.97;;
74080;SDS011;62438;52.228;6.864;2022-12-24T07:37:25;20.95;;;4.50;;
74080;SDS011;62438;52.228;6.864;2022-12-24T07:39:26;24.05;;;4.78;;
74080;SDS011;62438;52.228;6.864;2022-12-24T07:41:27;25.77;;;4.90;;
74080;SDS011;62438;52.228;6.864;2022-12-24T07:43:27;22.02;;;3.55;;
74080;SDS011;62438;52.228;6.864;2022-12-24T07:45:28;39.92;;;6.38;;
74080;SDS011;62438;52.228;6.864;2022-12-24T07:47:29;30.40;;;4.70;;
74080;SDS011;62438;52.228;6.864;2022-12-24T07:49:29;34.42;;;5.20;;
74080;SDS011;62438;52.228;6.864;2022-12-24T07:51:31;27.08;;;4.05;;
74080;SDS011;62438;52.228;6.864;2022-12-24T07:53:35;30.58;;;4.85;;
74080;SDS011;62438;52.228;6.864;2022-12-24T07:55:35;31.73;;;6.07;;
74080;SDS011;62438;52.228;6.864;2022-12-24T07:57:36;26.58;;;4.20;;
74080;SDS011;62438;52.228;6.864;2022-12-24T07:59:36;38.45;;;4.63;;
74080;SDS011;62438;52.228;6.864;2022-12-24T08:01:38;36.03;;;5.03;;
74080;SDS011;62438;52.228;6.864;2022-12-24T08:03:38;30.85;;;4.25;;
74080;SDS011;62438;52.228;6.864;2022-12-24T08:05:39;32.63;;;4.97;;
74080;SDS011;62438;52.228;6.864;2022-12-24T08:07:39;32.38;;;5.43;;
74080;SDS011;62438;52.228;6.864;2022-12-24T08:09:40;28.08;;;4.57;;
74080;SDS011;62438;52.228;6.864;2022-12-24T08:11:40;35.75;;;4.40;;
74080;SDS011;62438;52.228;6.864;2022-12-24T08:13:41;29.70;;;4.45;;
74080;SDS011;62438;52.228;6.864;2022-12-24T08:15:41;29.63;;;3.90;;
74080;SDS011;62438;52.228;6.864;2022-12-24T08:17:42;37.47;;;4.80;;
74080;SDS011;62438;52.228;6.864;2022-12-24T08:19:43;35.83;;;4.85;;
74080;SDS011;62438;52.228;6.864;2022-12-24T08:21:43;40.28;;;4.72;;
74080;SDS011;62438;52.228;6.864;2022-12-24T08:23:45;27.98;;;4.32;;
74080;SDS011;62438;52.228;6.864;2022-12-24T08:25:46;44.22;;;6.00;;
74080;SDS011;62438;52.228;6.864;2022-12-24T08:27:47;31.27;;;5.38;;
74080;SDS011;62438;52.228;6.864;2022-12-24T08:29:47;33.10;;;5.03;;
74080;SDS011;62438;52.228;6.864;2022-12-24T08:31:48;39.45;;;8.48;;
74080;SDS011;62438;52.228;6.864;2022-12-24T08:33:49;36.50;;;10.98;;
74080;SDS011;62438;52.228;6.864;2022-12-24T08:35:50;43.03;;;6.63;;
74080;SDS011;62438;52.228;6.864;2022-12-24T08:37:52;34.28;;;5.22;;
74080;SDS011;62438;52.228;6.864;2022-12-24T08:39:53;32.97;;;5.40;;
74080;SDS011;62438;52.228;6.864;2022-12-24T08:41:53;24.25;;;4.57;;
74080;SDS011;62438;52.228;6.864;2022-12-24T08:43:53;35.10;;;4.85;;
74080;SDS011;62438;52.228;6.864;2022-12-24T08:45:54;37.20;;;4.70;;
74080;SDS011;62438;52.228;6.864;2022-12-24T08:47:54;31.40;;;4.38;;
74080;SDS011;62438;52.228;6.864;2022-12-24T08:49:55;33.03;;;5.25;;
74080;SDS011;62438;52.228;6.864;2022-12-24T08:51:56;26.17;;;5.03;;
74080;SDS011;62438;52.228;6.864;2022-12-24T08:53:57;35.58;;;4.90;;
74080;SDS011;62438;52.228;6.864;2022-12-24T08:56:01;26.00;;;4.72;;
74080;SDS011;62438;52.228;6.864;2022-12-24T08:58:02;28.60;;;5.80;;
74080;SDS011;62438;52.228;6.864;2022-12-24T09:00:04;34.72;;;5.45;;
74080;SDS011;62438;52.228;6.864;2022-12-24T09:02:07;32.50;;;5.45;;
74080;SDS011;62438;52.228;6.864;2022-12-24T09:04:08;31.63;;;5.20;;
74080;SDS011;62438;52.228;6.864;2022-12-24T09:06:08;36.45;;;4.85;;
74080;SDS011;62438;52.228;6.864;2022-12-24T09:08:09;28.75;;;4.63;;
74080;SDS011;62438;52.228;6.864;2022-12-24T09:10:10;35.83;;;4.80;;
74080;SDS011;62438;52.228;6.864;2022-12-24T09:12:11;41.80;;;5.28;;
74080;SDS011;62438;52.228;6.864;2022-12-24T09:14:11;31.08;;;5.40;;
74080;SDS011;62438;52.228;6.864;2022-12-24T09:16:12;29.50;;;5.10;;
74080;SDS011;62438;52.228;6.864;2022-12-24T09:18:12;34.10;;;4.82;;
74080;SDS011;62438;52.228;6.864;2022-12-24T09:20:13;32.15;;;5.80;;
74080;SDS011;62438;52.228;6.864;2022-12-24T09:22:13;33.42;;;5.43;;
74080;SDS011;62438;52.228;6.864;2022-12-24T09:24:17;34.83;;;5.13;;
74080;SDS011;62438;52.228;6.864;2022-12-24T09:26:22;26.20;;;4.70;;
74080;SDS011;62438;52.228;6.864;2022-12-24T09:28:23;28.10;;;5.28;;
74080;SDS011;62438;52.228;6.864;2022-12-24T09:30:24;28.38;;;6.60;;
74080;SDS011;62438;52.228;6.864;2022-12-24T09:32:25;29.92;;;5.13;;
74080;SDS011;62438;52.228;6.864;2022-12-24T09:34:25;31.27;;;5.43;;
74080;SDS011;62438;52.228;6.864;2022-12-24T09:36:26;32.75;;;4.82;;
74080;SDS011;62438;52.228;6.864;2022-12-24T09:38:26;39.55;;;4.88;;
74080;SDS011;62438;52.228;6.864;2022-12-24T09:40:31;25.83;;;4.13;;
74080;SDS011;62438;52.228;6.864;2022-12-24T09:42:47;31.33;;;5.05;;
74080;SDS011;62438;52.228;6.864;2022-12-24T09:47:11;34.85;;;8.23;;
74080;SDS011;62438;52.228;6.864;2022-12-24T09:49:24;30.17;;;5.55;;
74080;SDS011;62438;52.228;6.864;2022-12-24T09:51:30;30.40;;;5.97;;
74080;SDS011;62438;52.228;6.864;2022-12-24T09:55:46;26.35;;;4.55;;
74080;SDS011;62438;52.228;6.864;2022-12-24T09:57:49;20.30;;;3.60;;
74080;SDS011;62438;52.228;6.864;2022-12-24T09:59:52;30.10;;;4.15;;
74080;SDS011;62438;52.228;6.864;2022-12-24T10:01:53;27.20;;;4.88;;
74080;SDS011;62438;52.228;6.864;2022-12-24T10:03:54;26.10;;;4.25;;
74080;SDS011;62438;52.228;6.864;2022-12-24T10:06:07;26.00;;;3.88;;
74080;SDS011;62438;52.228;6.864;2022-12-24T10:08:22;29.60;;;4.43;;
74080;SDS011;62438;52.228;6.864;2022-12-24T10:10:49;21.88;;;3.97;;
74080;SDS011;62438;52.228;6.864;2022-12-24T10:15:09;26.00;;;3.90;;
74080;SDS011;62438;52.228;6.864;2022-12-24T10:19:51;24.17;;;4.03;;
74080;SDS011;62438;52.228;6.864;2022-12-24T10:22:07;27.75;;;4.32;;
74080;SDS011;62438;52.228;6.864;2022-12-24T10:24:44;28.90;;;4.93;;
74080;SDS011;62438;52.228;6.864;2022-12-24T10:26:53;29.15;;;5.25;;
74080;SDS011;62438;52.228;6.864;2022-12-24T10:29:33;22.02;;;4.68;;
74080;SDS011;62438;52.228;6.864;2022-12-24T10:31:37;32.10;;;4.97;;
74080;SDS011;62438;52.228;6.864;2022-12-24T10:33:44;28.50;;;5.75;;
74080;SDS011;62438;52.228;6.864;2022-12-24T10:35:50;38.03;;;5.30;;
74080;SDS011;62438;52.228;6.864;2022-12-24T10:37:54;27.58;;;4.57;;
74080;SDS011;62438;52.228;6.864;2022-12-24T10:39:57;27.88;;;4.95;;
74080;SDS011;62438;52.228;6.864;2022-12-24T10:41:59;26.95;;;5.00;;
74080;SDS011;62438;52.228;6.864;2022-12-24T10:44:00;24.75;;;5.18;;
74080;SDS011;62438;52.228;6.864;2022-12-24T10:46:04;30.50;;;5.75;;
74080;SDS011;62438;52.228;6.864;2022-12-24T10:48:10;30.92;;;5.78;;
74080;SDS011;62438;52.228;6.864;2022-12-24T10:50:35;30.77;;;5.22;;
74080;SDS011;62438;52.228;6.864;2022-12-24T10:52:40;32.00;;;6.38;;
74080;SDS011;62438;52.228;6.864;2022-12-24T10:55:03;27.27;;;4.72;;
74080;SDS011;62438;52.228;6.864;2022-12-24T10:57:24;25.15;;;4.55;;
74080;SDS011;62438;52.228;6.864;2022-12-24T11:01:52;28.88;;;4.10;;
74080;SDS011;62438;52.228;6.864;2022-12-24T11:04:00;26.67;;;4.68;;
74080;SDS011;62438;52.228;6.864;2022-12-24T11:08:09;18.95;;;4.20;;
74080;SDS011;62438;52.228;6.864;2022-12-24T11:10:21;21.50;;;4.38;;
74080;SDS011;62438;52.228;6.864;2022-12-24T11:12:27;22.77;;;3.42;;
74080;SDS011;62438;52.228;6.864;2022-12-24T11:14:33;30.20;;;4.25;;
74080;SDS011;62438;52.228;6.864;2022-12-24T11:16:37;24.77;;;3.58;;
74080;SDS011;62438;52.228;6.864;2022-12-24T11:18:43;28.88;;;4.65;;
74080;SDS011;62438;52.228;6.864;2022-12-24T11:20:48;19.25;;;4.30;;
74080;SDS011;62438;52.228;6.864;2022-12-24T11:22:51;24.55;;;5.50;;
74080;SDS011;62438;52.228;6.864;2022-12-24T11:25:16;27.02;;;3.83;;
74080;SDS011;62438;52.228;6.864;2022-12-24T11:27:21;21.10;;;4.05;;
74080;SDS011;62438;52.228;6.864;2022-12-24T11:29:30;23.95;;;3.38;;
74080;SDS011;62438;52.228;6.864;2022-12-24T11:31:31;23.00;;;4.15;;
74080;SDS011;62438;52.228;6.864;2022-12-24T11:33:45;20.75;;;3.90;;
74080;SDS011;62438;52.228;6.864;2022-12-24T11:35:52;22.33;;;3.45;;
74080;SDS011;62438;52.228;6.864;2022-12-24T11:40:04;28.88;;;4.43;;
74080;SDS011;62438;52.228;6.864;2022-12-24T11:42:24;27.60;;;4.28;;
74080;SDS011;62438;52.228;6.864;2022-12-24T11:44:33;21.05;;;3.55;;
74080;SDS011;62438;52.228;6.864;2022-12-24T11:46:35;16.63;;;3.05;;
74080;SDS011;62438;52.228;6.864;2022-12-24T11:48:37;17.60;;;2.97;;
74080;SDS011;62438;52.228;6.864;2022-12-24T11:50:38;25.27;;;3.97;;
74080;SDS011;62438;52.228;6.864;2022-12-24T11:52:38;16.85;;;3.58;;
74080;SDS011;62438;52.228;6.864;2022-12-24T11:54:44;19.70;;;3.85;;
74080;SDS011;62438;52.228;6.864;2022-12-24T11:56:56;22.38;;;3.28;;
74080;SDS011;62438;52.228;6.864;2022-12-24T11:59:02;22.75;;;3.97;;
74080;SDS011;62438;52.228;6.864;2022-12-24T12:01:20;22.77;;;3.10;;
74080;SDS011;62438;52.228;6.864;2022-12-24T12:03:48;19.15;;;2.70;;
74080;SDS011;62438;52.228;6.864;2022-12-24T12:05:50;23.45;;;3.10;;
74080;SDS011;62438;52.228;6.864;2022-12-24T12:07:54;22.83;;;2.95;;
74080;SDS011;62438;52.228;6.864;2022-12-24T12:10:13;20.33;;;3.75;;
74080;SDS011;62438;52.228;6.864;2022-12-24T12:12:21;20.48;;;3.53;;
74080;SDS011;62438;52.228;6.864;2022-12-24T12:14:26;19.13;;;3.70;;
74080;SDS011;62438;52.228;6.864;2022-12-24T12:19:03;16.17;;;3.40;;
74080;SDS011;62438;52.228;6.864;2022-12-24T12:21:07;18.80;;;3.30;;
74080;SDS011;62438;52.228;6.864;2022-12-24T12:25:36;20.70;;;3.00;;
74080;SDS011;62438;52.228;6.864;2022-12-24T12:27:46;18.77;;;2.97;;
74080;SDS011;62438;52.228;6.864;2022-12-24T12:30:05;21.73;;;3.67;;
74080;SDS011;62438;52.228;6.864;2022-12-24T12:32:15;24.55;;;3.53;;
74080;SDS011;62438;52.228;6.864;2022-12-24T12:34:31;22.90;;;3.85;;
74080;SDS011;62438;52.228;6.864;2022-12-24T12:36:42;21.17;;;3.85;;
74080;SDS011;62438;52.228;6.864;2022-12-24T12:38:46;19.42;;;3.53;;
74080;SDS011;62438;52.228;6.864;2022-12-24T12:47:50;20.75;;;3.17;;
74080;SDS011;62438;52.228;6.864;2022-12-24T12:50:16;18.88;;;2.90;;
74080;SDS011;62438;52.228;6.864;2022-12-24T12:57:40;26.23;;;4.25;;
74080;SDS011;62438;52.228;6.864;2022-12-24T12:59:48;22.40;;;3.58;;
74080;SDS011;62438;52.228;6.864;2022-12-24T13:05:24;17.35;;;3.95;;
74080;SDS011;62438;52.228;6.864;2022-12-24T13:09:21;22.75;;;3.30;;
74080;SDS011;62438;52.228;6.864;2022-12-24T13:16:59;20.05;;;3.10;;
74080;SDS011;62438;52.228;6.864;2022-12-24T13:21:55;15.38;;;3.15;;
74080;SDS011;62438;52.228;6.864;2022-12-24T13:24:18;22.85;;;3.10;;
74080;SDS011;62438;52.228;6.864;2022-12-24T13:26:21;19.60;;;3.30;;
74080;SDS011;62438;52.228;6.864;2022-12-24T13:34:38;15.35;;;2.33;;
74080;SDS011;62438;52.228;6.864;2022-12-24T13:39:03;15.70;;;3.00;;